Time;durP1;ratioP1;P1;durP2;ratioP2;P2;SDS_P1;SDS_P2;PMS_P1;PMS_P2;Temp;Humidity;BMP_temperature;BMP_pressure;BME280_temperature;BME280_humidity;BME280_pressure;Samples;Min_cycle;Max_cycle;Signal;HPM_P1;HPM_P2
2023/10/17 00:01:52;;;;;;;3.67;3.17;;;15.40;98.30;;;;;;5102564;28;20175;-88
2023/10/17 00:06:47;;;;;;;4.50;3.20;;;15.40;98.20;;;;;;5109339;28;20164;-88
2023/10/17 00:09:21;;;;;;;3.67;2.90;;;15.40;98.20;;;;;;5106981;28;20178;-88
2023/10/17 00:11:58;;;;;;;3.73;2.87;;;15.40;98.10;;;;;;5110137;27;20162;-89
2023/10/17 00:14:44;;;;;;;4.60;3.03;;;15.40;98.00;;;;;;5093337;28;20181;-89
2023/10/17 00:17:13;;;;;;;3.63;3.00;;;15.40;98.20;;;;;;5093749;28;20545;-88
2023/10/17 00:19:41;;;;;;;3.40;2.97;;;15.30;98.10;;;;;;5093280;28;20373;-88
2023/10/17 00:22:12;;;;;;;3.00;2.70;;;15.30;98.10;;;;;;5097865;28;20176;-88
2023/10/17 00:24:45;;;;;;;3.83;2.90;;;15.30;98.50;;;;;;5102033;28;20275;-86
2023/10/17 00:27:11;;;;;;;3.00;2.70;;;15.30;98.10;;;;;;5094638;28;20164;-86
2023/10/17 00:29:40;;;;;;;3.50;3.13;;;15.30;98.20;;;;;;5103524;28;20179;-86
2023/10/17 00:32:09;;;;;;;3.57;3.03;;;15.30;98.00;;;;;;5100728;28;20570;-86
2023/10/17 00:34:36;;;;;;;3.33;3.03;;;15.30;98.10;;;;;;5094593;28;20190;-86
2023/10/17 00:37:11;;;;;;;3.60;2.90;;;15.30;98.20;;;;;;5094718;28;20232;-86
2023/10/17 00:39:40;;;;;;;3.20;2.90;;;15.30;98.10;;;;;;5102757;28;20168;-86
2023/10/17 00:44:41;;;;;;;4.00;3.00;;;15.30;98.00;;;;;;5105541;28;20199;-86
2023/10/17 00:47:08;;;;;;;2.90;2.60;;;15.30;98.10;;;;;;5094033;28;20241;-86
2023/10/17 00:49:41;;;;;;;3.93;3.07;;;15.30;98.10;;;;;;5093681;28;20317;-86
2023/10/17 00:52:19;;;;;;;3.57;3.10;;;15.30;98.20;;;;;;5093544;28;20167;-87
2023/10/17 00:54:46;;;;;;;3.00;2.70;;;15.30;98.10;;;;;;5094379;28;20180;-87
2023/10/17 00:57:14;;;;;;;3.40;2.50;;;15.30;98.10;;;;;;5093408;28;20171;-87
2023/10/17 00:59:53;;;;;;;3.00;2.70;;;15.20;97.90;;;;;;5095240;28;20182;-87
2023/10/17 01:02:29;;;;;;;3.47;3.10;;;15.20;97.90;;;;;;5113816;28;20421;-87
2023/10/17 01:04:59;;;;;;;3.27;2.90;;;15.20;98.00;;;;;;5095758;28;20506;-87
2023/10/17 01:07:35;;;;;;;3.33;2.67;;;15.20;98.10;;;;;;5111347;28;20191;-87
2023/10/17 01:10:16;;;;;;;3.07;2.77;;;15.20;98.20;;;;;;5096457;28;20581;-87
2023/10/17 01:13:04;;;;;;;3.03;2.73;;;15.20;98.20;;;;;;5112831;28;20176;-87
2023/10/17 01:15:37;;;;;;;2.97;2.50;;;15.20;98.10;;;;;;5096154;28;20177;-87
2023/10/17 01:18:06;;;;;;;2.90;2.60;;;15.20;98.20;;;;;;5091050;28;20175;-87
2023/10/17 01:20:38;;;;;;;3.20;2.80;;;15.20;98.10;;;;;;5090644;28;20177;-87
2023/10/17 01:23:07;;;;;;;3.10;2.80;;;15.20;97.90;;;;;;5089890;28;20347;-87
2023/10/17 01:25:41;;;;;;;3.00;2.70;;;15.20;97.80;;;;;;5092945;28;20175;-87
2023/10/17 01:28:07;;;;;;;3.50;2.70;;;15.20;97.90;;;;;;5095722;28;20173;-87
2023/10/17 01:30:32;;;;;;;2.97;2.60;;;15.10;97.80;;;;;;5096092;28;20178;-87
2023/10/17 01:33:02;;;;;;;3.77;2.87;;;15.20;98.00;;;;;;5096257;28;20175;-87
2023/10/17 01:35:31;;;;;;;3.27;2.97;;;15.10;97.90;;;;;;5092602;28;20193;-87
2023/10/17 01:37:57;;;;;;;3.47;3.03;;;15.10;98.00;;;;;;5093696;28;20418;-87
2023/10/17 01:40:22;;;;;;;2.50;2.30;;;15.10;98.10;;;;;;5093465;28;20463;-87
2023/10/17 01:42:52;;;;;;;2.90;2.60;;;15.10;97.80;;;;;;5093054;28;20457;-87
2023/10/17 01:45:25;;;;;;;3.03;2.73;;;15.10;98.00;;;;;;5093189;28;20170;-87
2023/10/17 01:47:52;;;;;;;2.87;2.53;;;15.10;97.90;;;;;;5093481;28;20569;-87
2023/10/17 01:50:23;;;;;;;3.20;2.60;;;15.10;97.90;;;;;;5093119;28;20715;-87
2023/10/17 01:52:59;;;;;;;2.77;2.57;;;15.10;97.90;;;;;;5092933;28;20180;-87
2023/10/17 01:55:27;;;;;;;2.93;2.50;;;15.10;98.00;;;;;;5098381;28;20169;-87
2023/10/17 01:57:57;;;;;;;4.33;3.07;;;15.10;97.90;;;;;;5096920;28;20291;-87
2023/10/17 02:03:03;;;;;;;3.60;2.50;;;15.10;97.90;;;;;;5099015;28;20208;-87
2023/10/17 02:05:35;;;;;;;2.90;2.60;;;15.10;98.00;;;;;;5093599;28;20171;-87
2023/10/17 02:08:01;;;;;;;2.83;2.30;;;15.10;98.00;;;;;;5098543;28;20179;-87
2023/10/17 02:10:29;;;;;;;4.10;2.83;;;15.10;97.80;;;;;;5090385;28;20165;-87
2023/10/17 02:12:55;;;;;;;2.80;2.53;;;15.10;97.90;;;;;;5089793;28;20178;-87
2023/10/17 02:15:23;;;;;;;2.87;2.67;;;15.00;97.80;;;;;;5092777;28;20182;-87
2023/10/17 02:17:53;;;;;;;2.73;2.37;;;15.00;97.90;;;;;;5091595;28;20212;-87
2023/10/17 02:20:34;;;;;;;2.77;2.40;;;15.00;97.90;;;;;;5092782;28;20178;-87
2023/10/17 02:26:00;;;;;;;2.93;2.70;;;15.00;98.00;;;;;;5098894;28;20181;-87
2023/10/17 02:28:25;;;;;;;2.80;2.40;;;15.00;97.90;;;;;;5106280;28;20236;-87
2023/10/17 02:30:53;;;;;;;3.00;2.70;;;15.00;97.90;;;;;;5114288;28;20319;-87
2023/10/17 02:33:19;;;;;;;2.90;2.60;;;15.00;97.80;;;;;;5097402;28;20178;-87
2023/10/17 02:36:08;;;;;;;3.50;3.03;;;15.00;98.00;;;;;;5095692;28;20198;-87
2023/10/17 02:38:34;;;;;;;2.37;2.17;;;15.00;97.80;;;;;;5097335;28;20372;-87
2023/10/17 02:41:05;;;;;;;2.10;1.90;;;15.00;97.80;;;;;;5095768;28;20182;-87
2023/10/17 02:43:35;;;;;;;3.07;2.57;;;15.00;97.70;;;;;;5091147;28;20218;-87
2023/10/17 02:46:04;;;;;;;3.40;2.80;;;15.00;97.90;;;;;;5093624;28;20202;-87
2023/10/17 02:48:38;;;;;;;3.00;2.70;;;15.00;98.00;;;;;;5094175;28;20194;-87
2023/10/17 02:53:53;;;;;;;2.90;2.60;;;15.00;97.90;;;;;;5106976;28;20260;-87
2023/10/17 02:56:23;;;;;;;2.80;2.40;;;15.00;97.90;;;;;;5093934;28;20493;-87
2023/10/17 03:01:33;;;;;;;3.07;2.60;;;14.90;97.80;;;;;;5096468;28;20441;-89
2023/10/17 03:04:02;;;;;;;4.67;2.40;;;14.90;97.80;;;;;;5095275;28;20199;-88
2023/10/17 03:06:33;;;;;;;2.50;2.30;;;14.90;97.60;;;;;;5095847;28;20387;-89
2023/10/17 03:09:15;;;;;;;2.50;2.30;;;14.90;97.90;;;;;;5109742;28;20198;-88
2023/10/17 03:11:51;;;;;;;2.50;2.30;;;14.90;97.80;;;;;;5096190;28;20167;-88
2023/10/17 03:14:22;;;;;;;2.77;2.47;;;14.90;97.80;;;;;;5103685;28;20184;-88
2023/10/17 03:16:54;;;;;;;3.37;2.90;;;14.90;97.80;;;;;;5113700;28;20378;-88
2023/10/17 03:19:25;;;;;;;2.93;2.63;;;14.90;97.70;;;;;;5096350;28;20340;-88
2023/10/17 03:21:53;;;;;;;2.60;2.40;;;14.90;97.70;;;;;;5113488;28;20512;-88
2023/10/17 03:24:19;;;;;;;2.50;2.30;;;14.90;97.80;;;;;;5094493;28;20234;-87
2023/10/17 03:26:54;;;;;;;2.73;2.33;;;14.80;97.80;;;;;;5112732;28;20474;-87
2023/10/17 03:29:23;;;;;;;2.60;2.30;;;14.90;97.70;;;;;;5096254;28;20169;-88
2023/10/17 03:31:58;;;;;;;2.60;2.40;;;14.80;97.70;;;;;;5094793;28;20433;-88
2023/10/17 03:34:35;;;;;;;2.47;2.20;;;14.80;97.60;;;;;;5094603;28;20173;-88
2023/10/17 03:37:27;;;;;;;2.80;2.40;;;14.80;97.70;;;;;;5092868;28;20288;-88
2023/10/17 03:39:55;;;;;;;2.37;2.03;;;14.80;97.50;;;;;;5094575;28;20175;-88
2023/10/17 03:45:13;;;;;;;2.67;2.20;;;14.80;97.80;;;;;;5098064;28;20175;-88
2023/10/17 03:48:13;;;;;;;2.60;2.17;;;14.80;97.80;;;;;;5092048;28;20174;-86
2023/10/17 03:53:29;;;;;;;3.07;2.23;;;14.80;97.60;;;;;;5093489;28;20193;-86
2023/10/17 03:56:00;;;;;;;2.70;2.50;;;14.80;97.60;;;;;;5103269;28;20177;-86
2023/10/17 04:00:58;;;;;;;3.67;2.40;;;14.70;97.50;;;;;;5102180;28;20162;-88
2023/10/17 04:03:30;;;;;;;2.30;2.10;;;14.70;97.70;;;;;;5112905;28;20304;-88
2023/10/17 04:08:56;;;;;;;2.63;2.43;;;14.80;97.60;;;;;;5114497;28;20176;-88
2023/10/17 04:14:03;;;;;;;2.10;1.90;;;14.70;97.60;;;;;;5095987;28;20194;-88
2023/10/17 04:16:38;;;;;;;2.60;2.20;;;14.80;97.80;;;;;;5093691;28;20174;-88
2023/10/17 04:19:07;;;;;;;2.30;2.10;;;14.70;97.60;;;;;;5093548;28;20177;-88
2023/10/17 04:21:45;;;;;;;2.33;1.97;;;14.70;97.60;;;;;;5091620;28;20181;-88
2023/10/17 04:24:13;;;;;;;2.87;2.33;;;14.70;97.60;;;;;;5091162;28;20278;-88
2023/10/17 04:26:47;;;;;;;2.57;2.17;;;14.70;97.70;;;;;;5094729;28;20269;-88
2023/10/17 04:29:29;;;;;;;2.83;2.10;;;14.70;97.70;;;;;;5112835;28;20174;-88
2023/10/17 04:32:01;;;;;;;2.53;2.30;;;14.70;97.50;;;;;;5091893;28;20253;-88
2023/10/17 04:34:28;;;;;;;2.27;1.97;;;14.70;97.60;;;;;;5093149;28;20243;-88
2023/10/17 04:36:56;;;;;;;2.53;2.13;;;14.70;97.50;;;;;;5090971;28;20363;-88
2023/10/17 04:44:20;;;;;;;2.30;2.10;;;14.60;97.40;;;;;;5113766;28;20581;-88
2023/10/17 04:46:50;;;;;;;2.47;2.20;;;14.60;97.60;;;;;;5109691;28;20166;-88
2023/10/17 04:49:36;;;;;;;2.43;2.23;;;14.60;97.50;;;;;;5094146;28;20379;-88
2023/10/17 04:52:09;;;;;;;2.63;2.20;;;14.60;97.70;;;;;;5093149;28;20187;-88
2023/10/17 04:57:21;;;;;;;2.73;2.10;;;14.60;97.80;;;;;;5102236;28;20172;-88
2023/10/17 06:17:29;;;;;;;3.87;2.93;;;14.60;99.90;;;;;;5084583;28;20227;-88
2023/10/17 06:20:01;;;;;;;3.87;2.73;;;14.60;99.90;;;;;;5082058;28;20190;-87
2023/10/17 06:23:16;;;;;;;3.43;2.80;;;14.60;99.90;;;;;;5081634;28;20179;-88
2023/10/17 06:26:05;;;;;;;3.63;2.77;;;14.60;99.90;;;;;;5097971;28;20173;-88
2023/10/17 06:28:28;;;;;;;3.47;2.67;;;14.60;99.90;;;;;;5100841;28;20419;-88
2023/10/17 06:31:34;;;;;;;3.53;2.70;;;14.60;99.90;;;;;;5094621;28;20173;-88
2023/10/17 06:34:00;;;;;;;5.53;3.03;;;14.60;99.90;;;;;;5083804;28;20354;-88
2023/10/17 06:36:29;;;;;;;3.37;2.80;;;14.60;99.90;;;;;;5080988;28;20480;-86
2023/10/17 06:38:55;;;;;;;4.13;2.90;;;14.60;99.90;;;;;;5082792;28;20392;-87
2023/10/17 06:41:27;;;;;;;4.23;2.80;;;14.60;99.90;;;;;;5081750;28;20190;-86
2023/10/17 06:43:58;;;;;;;4.37;2.63;;;14.60;99.90;;;;;;5082680;28;20313;-86
2023/10/17 06:46:32;;;;;;;3.90;2.70;;;14.60;99.90;;;;;;5090907;28;20466;-87
2023/10/17 06:49:07;;;;;;;4.27;3.13;;;14.60;99.90;;;;;;5103746;28;20185;-87
2023/10/17 06:51:36;;;;;;;5.57;2.80;;;14.60;99.90;;;;;;5087400;28;20327;-87
2023/10/17 06:54:12;;;;;;;4.60;2.93;;;14.60;99.90;;;;;;5082001;28;20171;-87
2023/10/17 06:56:44;;;;;;;5.57;2.97;;;14.60;99.90;;;;;;5087461;28;20216;-87
2023/10/17 06:59:24;;;;;;;3.20;2.63;;;14.60;99.90;;;;;;5083293;28;20174;-87
2023/10/17 07:04:43;;;;;;;4.77;2.70;;;14.60;99.90;;;;;;5082600;28;20229;-87
2023/10/17 07:07:09;;;;;;;3.77;2.80;;;14.60;99.90;;;;;;5083050;28;20208;-87
2023/10/17 07:09:38;;;;;;;4.00;2.80;;;14.60;99.90;;;;;;5081319;28;20754;-87
2023/10/17 07:12:13;;;;;;;4.23;2.80;;;14.60;99.90;;;;;;5086012;28;20205;-87
2023/10/17 07:14:47;;;;;;;5.00;2.90;;;14.60;99.90;;;;;;5087996;28;20172;-87
2023/10/17 07:17:28;;;;;;;4.37;2.70;;;14.60;99.90;;;;;;5101017;28;20185;-87
2023/10/17 07:20:12;;;;;;;5.50;2.80;;;14.60;99.90;;;;;;5085124;28;20182;-87
2023/10/17 07:22:41;;;;;;;3.57;3.00;;;14.60;99.90;;;;;;5086342;28;20271;-87
2023/10/17 07:25:17;;;;;;;4.73;2.90;;;14.60;99.90;;;;;;5085602;28;20164;-87
2023/10/17 07:27:45;;;;;;;3.43;3.13;;;14.60;99.90;;;;;;5084524;28;20270;-87
2023/10/17 07:30:13;;;;;;;4.13;2.47;;;14.60;99.90;;;;;;5083270;28;20415;-87
2023/10/17 07:32:54;;;;;;;3.93;2.80;;;14.60;99.90;;;;;;5086144;28;20211;-87
2023/10/17 07:35:30;;;;;;;3.60;2.60;;;14.60;99.80;;;;;;5103044;27;20564;-87
2023/10/17 07:38:00;;;;;;;4.00;2.40;;;14.60;99.70;;;;;;5085917;28;20204;-87
2023/10/17 07:40:33;;;;;;;2.73;2.53;;;14.60;99.70;;;;;;5103556;28;20177;-87
2023/10/17 07:43:02;;;;;;;9.63;3.30;;;14.60;99.80;;;;;;5087224;28;20440;-87
2023/10/17 07:45:38;;;;;;;3.60;2.70;;;14.60;99.70;;;;;;5085557;28;20196;-87
2023/10/17 07:48:22;;;;;;;3.50;2.30;;;14.60;99.70;;;;;;5091227;28;20163;-87
2023/10/17 07:51:06;;;;;;;3.67;2.40;;;14.60;99.90;;;;;;5087132;28;20261;-87
2023/10/17 07:53:35;;;;;;;3.83;2.90;;;14.60;99.60;;;;;;5100680;28;20174;-87
2023/10/17 07:56:13;;;;;;;3.40;2.60;;;14.60;99.30;;;;;;5084461;28;20178;-87
2023/10/17 07:58:45;;;;;;;3.43;2.63;;;14.70;99.40;;;;;;5086841;28;20294;-87
2023/10/17 08:01:30;;;;;;;4.00;2.70;;;14.70;99.30;;;;;;5103831;28;20241;-87
2023/10/17 08:04:13;;;;;;;3.73;2.70;;;14.70;99.30;;;;;;5092470;28;20193;-87
2023/10/17 08:06:39;;;;;;;2.83;2.40;;;14.80;99.10;;;;;;5105257;28;20166;-87
2023/10/17 08:09:16;;;;;;;4.77;2.57;;;14.80;98.80;;;;;;5084143;28;20270;-87
2023/10/17 08:11:46;;;;;;;3.83;2.50;;;14.70;98.80;;;;;;5082963;28;20475;-87
2023/10/17 08:14:16;;;;;;;4.00;2.77;;;14.70;98.80;;;;;;5087193;28;20205;-87
2023/10/17 08:16:46;;;;;;;3.10;2.67;;;14.80;98.90;;;;;;5106704;28;20265;-87
2023/10/17 08:19:15;;;;;;;3.00;2.70;;;14.80;98.70;;;;;;5090207;28;20205;-87
2023/10/17 08:24:33;;;;;;;2.60;2.40;;;14.80;98.50;;;;;;5093731;28;20271;-87
2023/10/17 08:29:48;;;;;;;3.67;2.40;;;14.70;98.50;;;;;;5096345;28;20343;-87
2023/10/17 08:34:50;;;;;;;3.47;2.50;;;14.80;98.50;;;;;;5093551;28;20171;-87
2023/10/17 08:37:19;;;;;;;4.13;2.90;;;14.80;98.40;;;;;;5106698;28;20475;-87
2023/10/17 08:39:51;;;;;;;2.73;2.50;;;14.80;98.40;;;;;;5086848;28;20205;-87
2023/10/17 08:44:59;;;;;;;3.57;2.70;;;14.90;98.40;;;;;;5100022;28;20198;-87
2023/10/17 08:47:29;;;;;;;3.83;2.60;;;14.90;98.30;;;;;;5086229;28;20178;-87
2023/10/17 08:50:04;;;;;;;2.90;2.43;;;14.90;98.20;;;;;;5087729;28;20191;-87
2023/10/17 08:52:37;;;;;;;4.60;2.70;;;15.00;98.10;;;;;;5086954;28;20173;-87
2023/10/17 08:55:06;;;;;;;3.87;2.70;;;15.00;98.00;;;;;;5087231;28;20234;-87
2023/10/17 08:58:01;;;;;;;3.47;2.40;;;15.10;97.90;;;;;;5086393;28;20213;-87
2023/10/17 09:03:53;;;;;;;4.07;2.60;;;15.10;97.70;;;;;;5104361;28;20300;-87
2023/10/17 09:08:55;;;;;;;2.93;2.63;;;15.20;97.60;;;;;;5104896;28;20182;-87
2023/10/17 09:11:30;;;;;;;3.23;2.80;;;15.20;97.70;;;;;;5092936;28;20266;-87
2023/10/17 09:17:02;;;;;;;3.10;2.80;;;15.20;97.50;;;;;;5089330;28;20351;-87
2023/10/17 09:19:46;;;;;;;3.23;2.60;;;15.30;97.50;;;;;;5100200;28;20536;-87
2023/10/17 09:22:17;;;;;;;2.90;2.50;;;15.30;97.40;;;;;;5092182;28;20166;-87
2023/10/17 09:24:49;;;;;;;2.40;2.20;;;15.30;97.30;;;;;;5084017;28;20273;-87
2023/10/17 09:27:17;;;;;;;3.63;2.50;;;15.30;97.30;;;;;;5081193;28;20171;-88
2023/10/17 09:29:57;;;;;;;2.97;2.30;;;15.30;97.30;;;;;;5083052;28;20171;-88
2023/10/17 09:32:35;;;;;;;2.80;2.40;;;15.40;97.30;;;;;;5083496;28;20347;-85
2023/10/17 09:35:18;;;;;;;2.87;2.33;;;15.40;97.10;;;;;;5083174;28;20166;-85
2023/10/17 09:38:07;;;;;;;3.60;2.50;;;15.40;97.20;;;;;;5082266;28;20175;-85
2023/10/17 09:40:33;;;;;;;2.50;2.20;;;15.40;97.10;;;;;;5076197;28;20256;-85
2023/10/17 09:43:03;;;;;;;2.60;2.40;;;15.40;97.00;;;;;;5091581;28;20544;-85
2023/10/17 09:45:33;;;;;;;3.20;2.37;;;15.40;97.00;;;;;;5086204;28;20230;-85
2023/10/17 09:48:07;;;;;;;3.80;2.40;;;15.50;97.10;;;;;;5086428;28;20174;-88
2023/10/17 09:50:42;;;;;;;3.07;2.40;;;15.60;97.20;;;;;;5086736;28;20166;-88
2023/10/17 09:53:19;;;;;;;3.57;1.87;;;15.60;97.20;;;;;;5095191;28;20212;-88
2023/10/17 09:55:56;;;;;;;3.37;2.33;;;15.60;97.20;;;;;;5102475;28;20182;-88
2023/10/17 09:58:28;;;;;;;4.27;2.43;;;15.60;97.10;;;;;;5083845;28;20154;-86
2023/10/17 10:01:05;;;;;;;4.30;2.50;;;15.60;97.10;;;;;;5085171;28;20168;-86
2023/10/17 10:03:36;;;;;;;2.97;2.37;;;15.70;97.10;;;;;;5082875;28;20173;-85
2023/10/17 10:06:21;;;;;;;3.13;2.53;;;15.70;97.00;;;;;;5080727;28;20289;-85
2023/10/17 10:08:48;;;;;;;3.60;2.27;;;15.70;96.90;;;;;;5082464;28;20261;-85
2023/10/17 10:11:58;;;;;;;3.07;2.50;;;15.70;96.80;;;;;;5081031;28;20347;-86
2023/10/17 10:14:23;;;;;;;2.50;2.20;;;15.70;96.70;;;;;;5082560;28;20209;-85
2023/10/17 10:17:03;;;;;;;3.63;2.30;;;15.70;96.70;;;;;;5081327;28;20163;-85
2023/10/17 10:19:44;;;;;;;2.93;2.20;;;15.70;96.60;;;;;;5092280;28;20204;-84
2023/10/17 10:22:12;;;;;;;2.60;2.13;;;15.80;96.60;;;;;;5085245;28;20205;-85
2023/10/17 10:24:39;;;;;;;2.80;2.13;;;15.80;96.50;;;;;;5088474;28;20181;-85
2023/10/17 10:27:29;;;;;;;2.67;2.20;;;15.80;96.40;;;;;;5084210;28;20167;-84
2023/10/17 10:30:43;;;;;;;2.30;2.10;;;15.80;96.30;;;;;;5087657;28;20166;-85
2023/10/17 10:33:13;;;;;;;3.60;1.90;;;15.80;96.40;;;;;;5080247;28;20468;-85
2023/10/17 10:35:45;;;;;;;2.57;2.20;;;15.90;96.50;;;;;;5081325;28;20182;-85
2023/10/17 10:38:11;;;;;;;2.70;2.07;;;15.90;96.40;;;;;;5091295;28;20242;-85
2023/10/17 10:40:40;;;;;;;3.73;1.90;;;15.90;96.20;;;;;;5085537;28;20163;-85
2023/10/17 10:43:06;;;;;;;2.83;2.03;;;15.90;96.10;;;;;;5089285;28;20173;-85
2023/10/17 10:45:50;;;;;;;2.17;1.97;;;16.00;96.00;;;;;;5087818;28;20254;-85
2023/10/17 10:48:18;;;;;;;2.90;2.13;;;16.00;95.80;;;;;;5082316;28;20178;-86
2023/10/17 10:51:00;;;;;;;2.30;2.10;;;16.10;95.60;;;;;;5082958;28;20201;-85
2023/10/17 10:53:31;;;;;;;1.93;1.70;;;16.20;95.50;;;;;;5089133;28;20226;-85
2023/10/17 10:56:13;;;;;;;3.27;2.10;;;16.20;95.20;;;;;;5099396;28;20178;-85
2023/10/17 10:58:47;;;;;;;2.20;2.00;;;16.40;94.90;;;;;;5092151;28;20465;-86
2023/10/17 11:01:14;;;;;;;2.60;2.13;;;16.40;94.60;;;;;;5100837;28;20162;-85
2023/10/17 11:03:47;;;;;;;2.17;1.80;;;16.40;94.50;;;;;;5104261;28;20242;-85
2023/10/17 11:06:14;;;;;;;2.87;2.00;;;16.20;94.60;;;;;;5091595;28;20177;-86
2023/10/17 11:08:43;;;;;;;2.23;1.70;;;16.00;95.00;;;;;;5084375;28;20379;-87
2023/10/17 11:11:14;;;;;;;2.17;1.70;;;15.90;95.20;;;;;;5084234;28;20472;-87
2023/10/17 11:13:47;;;;;;;2.77;1.73;;;15.90;95.40;;;;;;5084502;28;20717;-86
2023/10/17 11:16:19;;;;;;;2.20;1.80;;;15.80;95.50;;;;;;5096952;28;20439;-87
2023/10/17 11:18:46;;;;;;;2.07;1.70;;;15.80;95.50;;;;;;5097690;28;20256;-86
2023/10/17 11:21:13;;;;;;;2.00;1.80;;;15.80;95.60;;;;;;5086541;28;20232;-87
2023/10/17 11:23:53;;;;;;;2.37;1.50;;;15.80;95.60;;;;;;5085716;28;20175;-87
2023/10/17 11:26:26;;;;;;;1.80;1.70;;;15.80;95.60;;;;;;5096919;28;20166;-87
2023/10/17 11:28:56;;;;;;;2.17;1.70;;;15.80;95.60;;;;;;5103422;28;20192;-87
2023/10/17 11:31:22;;;;;;;1.73;1.60;;;15.80;95.60;;;;;;5101185;28;20375;-87
2023/10/17 11:34:04;;;;;;;1.87;1.57;;;15.80;95.70;;;;;;5102058;28;20476;-87
2023/10/17 11:36:36;;;;;;;1.70;1.50;;;15.80;95.70;;;;;;5084340;28;20337;-87
2023/10/17 11:39:05;;;;;;;2.53;1.57;;;15.80;95.70;;;;;;5084762;28;20178;-87
2023/10/17 11:41:54;;;;;;;1.83;1.40;;;15.70;95.70;;;;;;5086790;28;20314;-87
2023/10/17 11:44:31;;;;;;;2.27;1.60;;;15.70;95.70;;;;;;5086050;28;20215;-87
2023/10/17 11:47:03;;;;;;;2.50;1.80;;;15.70;95.70;;;;;;5084713;28;20207;-87
2023/10/17 11:49:46;;;;;;;2.27;1.70;;;15.70;95.70;;;;;;5083720;28;20437;-87
2023/10/17 11:52:13;;;;;;;2.87;1.60;;;15.70;95.70;;;;;;5094663;28;20261;-86
2023/10/17 11:55:04;;;;;;;3.27;1.67;;;15.70;95.80;;;;;;5102932;28;20279;-87
2023/10/17 11:57:33;;;;;;;2.70;1.70;;;15.70;95.80;;;;;;5084201;28;20415;-87
2023/10/17 12:00:07;;;;;;;1.80;1.60;;;15.70;95.90;;;;;;5086039;28;20410;-87
2023/10/17 12:02:41;;;;;;;2.37;1.40;;;15.70;95.90;;;;;;5080010;28;20494;-87
2023/10/17 12:05:17;;;;;;;2.73;1.60;;;15.70;95.90;;;;;;5086167;28;20231;-87
2023/10/17 12:07:43;;;;;;;1.73;1.60;;;15.60;95.90;;;;;;5094559;28;20203;-88
2023/10/17 12:10:12;;;;;;;1.60;1.40;;;15.70;95.90;;;;;;5103468;28;20265;-87
2023/10/17 12:12:39;;;;;;;1.63;1.27;;;15.70;96.00;;;;;;5084693;28;20279;-87
2023/10/17 12:15:05;;;;;;;1.97;1.70;;;15.60;96.00;;;;;;5086117;28;20205;-87
2023/10/17 12:17:31;;;;;;;2.00;1.30;;;15.60;96.00;;;;;;5086009;28;20551;-87
2023/10/17 12:20:00;;;;;;;2.50;1.33;;;15.60;96.00;;;;;;5094137;28;20174;-88
2023/10/17 12:22:31;;;;;;;1.57;1.40;;;15.60;96.00;;;;;;5093280;28;20164;-87
2023/10/17 12:24:57;;;;;;;1.93;1.30;;;15.60;96.10;;;;;;5090560;28;20176;-88
2023/10/17 12:27:25;;;;;;;1.53;1.40;;;15.60;96.10;;;;;;5085495;28;20170;-87
2023/10/17 12:29:54;;;;;;;1.70;1.40;;;15.60;96.10;;;;;;5084897;28;20203;-87
2023/10/17 12:32:22;;;;;;;3.43;1.67;;;15.60;96.10;;;;;;5085328;28;20198;-87
2023/10/17 12:34:54;;;;;;;2.87;1.60;;;15.60;96.20;;;;;;5105473;28;20194;-87
2023/10/17 12:37:20;;;;;;;1.83;1.50;;;15.60;96.20;;;;;;5089002;28;20451;-88
2023/10/17 12:39:47;;;;;;;2.10;1.57;;;15.60;96.20;;;;;;5084933;28;20204;-87
2023/10/17 12:42:15;;;;;;;2.97;1.53;;;15.60;96.20;;;;;;5082059;28;20162;-87
2023/10/17 12:44:41;;;;;;;1.90;1.40;;;15.60;96.20;;;;;;5081953;28;20287;-87
2023/10/17 12:47:07;;;;;;;2.07;1.60;;;15.60;96.30;;;;;;5083957;28;20183;-87
2023/10/17 12:49:37;;;;;;;1.70;1.60;;;15.60;96.30;;;;;;5082732;28;20586;-87
2023/10/17 12:52:06;;;;;;;2.07;1.47;;;15.60;96.30;;;;;;5085323;28;20278;-87
2023/10/17 12:54:35;;;;;;;1.40;1.30;;;15.60;96.30;;;;;;5093255;28;20199;-86
2023/10/17 12:57:06;;;;;;;1.97;1.50;;;15.60;96.40;;;;;;5083711;28;20181;-87
2023/10/17 12:59:32;;;;;;;1.97;1.60;;;15.50;96.30;;;;;;5105707;28;20208;-87
2023/10/17 13:02:01;;;;;;;2.43;1.20;;;15.60;96.40;;;;;;5101796;28;20496;-88
2023/10/17 13:04:27;;;;;;;2.10;1.47;;;15.50;96.40;;;;;;5083178;28;20219;-87
2023/10/17 13:06:55;;;;;;;1.60;1.50;;;15.50;96.40;;;;;;5085790;28;20274;-87
2023/10/17 13:09:24;;;;;;;1.97;1.43;;;15.50;96.40;;;;;;5085239;28;20638;-87
2023/10/17 13:11:53;;;;;;;2.70;1.37;;;15.50;96.40;;;;;;5083860;28;20183;-87
2023/10/17 13:14:23;;;;;;;1.67;1.33;;;15.50;96.40;;;;;;5083709;28;20257;-87
2023/10/17 13:16:52;;;;;;;2.90;1.50;;;15.50;96.50;;;;;;5082015;28;20538;-87
2023/10/17 13:19:21;;;;;;;2.60;1.70;;;15.50;96.50;;;;;;5082952;28;20180;-87
2023/10/17 13:21:47;;;;;;;2.23;1.50;;;15.50;96.50;;;;;;5083156;28;20446;-87
2023/10/17 13:24:16;;;;;;;1.80;1.33;;;15.50;96.50;;;;;;5083017;28;20436;-87
2023/10/17 13:26:45;;;;;;;2.50;1.47;;;15.50;96.60;;;;;;5082641;28;20567;-88
2023/10/17 13:29:12;;;;;;;2.40;1.80;;;15.50;96.50;;;;;;5093326;28;20195;-87
2023/10/17 13:31:41;;;;;;;1.23;1.13;;;15.50;96.60;;;;;;5081838;28;20170;-87
2023/10/17 13:34:12;;;;;;;2.80;1.70;;;15.50;96.60;;;;;;5076107;28;20202;-87
2023/10/17 13:36:39;;;;;;;2.37;1.43;;;15.50;96.60;;;;;;5077077;28;20240;-87
2023/10/17 13:39:05;;;;;;;1.70;1.50;;;15.50;96.60;;;;;;5086732;28;20231;-87
2023/10/17 13:41:31;;;;;;;2.20;1.40;;;15.50;96.60;;;;;;5079624;28;20537;-87
2023/10/17 13:43:57;;;;;;;2.17;1.50;;;15.50;96.70;;;;;;5079030;28;20181;-87
2023/10/17 13:46:23;;;;;;;2.23;1.70;;;15.50;96.60;;;;;;5079842;28;20227;-88
2023/10/17 13:48:49;;;;;;;1.37;1.20;;;15.50;96.70;;;;;;5079046;28;20171;-89
2023/10/17 13:51:16;;;;;;;2.10;1.53;;;15.50;96.70;;;;;;5085683;28;20167;-89
2023/10/17 13:53:57;;;;;;;1.80;1.60;;;15.50;96.70;;;;;;5087199;28;20547;-89
2023/10/17 13:56:27;;;;;;;2.07;1.60;;;15.50;96.70;;;;;;5080616;28;20579;-88
2023/10/17 13:58:56;;;;;;;1.50;1.40;;;15.50;96.70;;;;;;5085471;28;20167;-89
2023/10/17 14:01:31;;;;;;;2.43;1.40;;;15.40;96.70;;;;;;5081550;28;20172;-89
2023/10/17 14:03:59;;;;;;;1.63;1.30;;;15.40;96.70;;;;;;5067458;28;20215;-88
2023/10/17 14:06:34;;;;;;;2.27;1.30;;;15.40;96.70;;;;;;5082088;28;20240;-87
2023/10/17 14:09:00;;;;;;;1.70;1.37;;;15.40;96.70;;;;;;5083196;28;20181;-87
2023/10/17 14:11:29;;;;;;;1.67;1.50;;;15.50;96.70;;;;;;5086392;28;20345;-88
2023/10/17 14:13:58;;;;;;;1.57;1.30;;;15.50;96.70;;;;;;5082270;28;20203;-88
2023/10/17 14:16:23;;;;;;;1.57;1.33;;;15.40;96.70;;;;;;5081635;28;20179;-88
2023/10/17 14:19:03;;;;;;;1.40;1.20;;;15.50;96.80;;;;;;5083027;28;20172;-89
2023/10/17 14:23:57;;;;;;;2.03;1.30;;;15.40;96.70;;;;;;5107917;28;20207;-89
2023/10/17 14:26:30;;;;;;;1.67;1.40;;;15.50;96.80;;;;;;5086923;28;20331;-89
2023/10/17 14:29:03;;;;;;;1.37;1.20;;;15.40;96.80;;;;;;5082750;28;20280;-89
2023/10/17 14:31:30;;;;;;;1.53;1.30;;;15.40;96.80;;;;;;5081545;28;20211;-89
2023/10/17 14:33:58;;;;;;;1.40;1.30;;;15.40;96.80;;;;;;5085672;28;20203;-89
2023/10/17 14:36:27;;;;;;;1.43;1.33;;;15.40;96.80;;;;;;5085890;28;20191;-89
2023/10/17 14:38:53;;;;;;;1.80;1.20;;;15.40;96.80;;;;;;5085828;28;20280;-89
2023/10/17 14:41:23;;;;;;;1.47;1.20;;;15.50;96.80;;;;;;5088463;28;20203;-89
2023/10/17 14:43:50;;;;;;;1.37;1.20;;;15.50;96.90;;;;;;5087194;28;20192;-89
2023/10/17 14:46:17;;;;;;;1.20;1.10;;;15.40;96.80;;;;;;5085683;28;20232;-88
2023/10/17 14:48:49;;;;;;;1.30;1.20;;;15.40;96.80;;;;;;5086447;28;20174;-89
2023/10/17 14:51:19;;;;;;;1.97;1.30;;;15.40;96.80;;;;;;5086983;28;20171;-89
2023/10/17 14:53:46;;;;;;;1.93;1.30;;;15.40;96.80;;;;;;5088409;28;20191;-89
2023/10/17 14:56:15;;;;;;;1.40;1.30;;;15.40;96.80;;;;;;5087991;28;20445;-89
2023/10/17 14:58:42;;;;;;;2.37;1.20;;;15.40;96.80;;;;;;5086123;28;20171;-89
2023/10/17 15:01:10;;;;;;;1.37;1.27;;;15.40;96.80;;;;;;5085653;28;20213;-88
2023/10/17 15:03:36;;;;;;;2.20;1.20;;;15.40;96.80;;;;;;5086123;28;20175;-89
2023/10/17 15:06:08;;;;;;;1.30;1.20;;;15.40;96.80;;;;;;5088486;28;20438;-89
2023/10/17 15:08:34;;;;;;;1.37;1.10;;;15.40;96.80;;;;;;5088196;28;20217;-89
2023/10/17 15:11:10;;;;;;;2.57;1.30;;;15.40;96.80;;;;;;5085440;28;20176;-89
2023/10/17 15:13:37;;;;;;;1.50;1.30;;;15.40;96.80;;;;;;5098235;28;20194;-89
2023/10/17 15:16:14;;;;;;;1.30;1.13;;;15.40;96.80;;;;;;5108102;28;20174;-90
2023/10/17 15:18:43;;;;;;;2.03;1.20;;;15.40;96.80;;;;;;5100436;28;20230;-89
2023/10/17 15:21:13;;;;;;;1.43;1.10;;;15.40;96.80;;;;;;5087413;28;20182;-89
2023/10/17 15:23:42;;;;;;;1.80;1.20;;;15.40;96.80;;;;;;5087836;28;20571;-89
2023/10/17 15:26:14;;;;;;;1.40;1.30;;;15.40;96.80;;;;;;5086919;28;20160;-89
2023/10/17 15:28:50;;;;;;;1.70;1.20;;;15.40;96.80;;;;;;5085462;28;20589;-89
2023/10/17 15:31:16;;;;;;;1.20;1.10;;;15.40;96.80;;;;;;5087671;28;20306;-89
2023/10/17 15:33:44;;;;;;;1.73;1.33;;;15.40;96.80;;;;;;5090048;28;20194;-89